Amherst, Massachusetts
Current Conditions -  °F | °C
As of 7:58 PM on Saturday 20 Dec 2014 (Local Time) from KCEF Reporting Station
Light Snow Light Snow  
Wind Chill: 31°   Ceiling: 2600
Heat Index: 31°   Visibility: 10mi
Dew Point: 24°   Wind: 0mph
Humidity: 74%   Direction: NA
Pressure: 30.28"   Gusts: NA
Location:  42.38°N, 72.52°W
Report Text: KCEF 210058Z 00000KT 10SM -SN OVC026 M00/M05 A3028 RMK AO2A SLP263 P0000 T10041046
Loading
Personal Weather Stations






























Interactive Weather Map New forecast layout! Learn more

10-Day Weather Forecast

Advertisements
Track Severe Weather on mobile